Boldon, United Kingdom
Current Conditions -  °F | °C
As of 6:20 PM on Friday 28 Nov 2014 (Local Time) from EGNT Reporting Station
Haze Haze  
Wind Chill:   Ceiling: 200
Heat Index:   Visibility: 1.8mi
Dew Point:   Wind: 8mph
Humidity: 100%   Direction: 120°ESE
Pressure: 29.83"   Gusts: NA
Location:  54.94°N, 1.45°W
Report Text: EGNT 281820Z 12007KT 3000 BR OVC002 09/09 Q1010
Loading
Personal Weather Stations






























Interactive Weather Map New forecast layout! Learn more

10-Day Weather Forecast

Advertisements
Track Severe Weather on mobile